sensor_id;sensor_type;location;lat;lon;timestamp;temperature;humidity
52267;DHT22;38223;50.940;4.034;2023-04-01T00:01:41;10.40;99.90
52267;DHT22;38223;50.940;4.034;2023-04-01T00:04:08;10.50;99.90
52267;DHT22;38223;50.940;4.034;2023-04-01T00:06:36;10.50;99.90
52267;DHT22;38223;50.940;4.034;2023-04-01T00:09:08;10.40;99.90
52267;DHT22;38223;50.940;4.034;2023-04-01T00:11:38;10.40;99.90
52267;DHT22;38223;50.940;4.034;2023-04-01T00:14:10;10.40;99.90
52267;DHT22;38223;50.940;4.034;2023-04-01T00:16:41;10.20;99.90
52267;DHT22;38223;50.940;4.034;2023-04-01T00:19:11;10.20;99.90
52267;DHT22;38223;50.940;4.034;2023-04-01T00:21:38;10.30;99.90
52267;DHT22;38223;50.940;4.034;2023-04-01T00:24:08;10.40;99.90
52267;DHT22;38223;50.940;4.034;2023-04-01T00:26:44;10.40;99.90
52267;DHT22;38223;50.940;4.034;2023-04-01T00:29:15;10.40;99.90
52267;DHT22;38223;50.940;4.034;2023-04-01T00:31:48;10.40;99.90
52267;DHT22;38223;50.940;4.034;2023-04-01T00:34:16;10.30;99.90
52267;DHT22;38223;50.940;4.034;2023-04-01T00:36:43;10.40;99.90
52267;DHT22;38223;50.940;4.034;2023-04-01T00:39:14;10.40;99.90
52267;DHT22;38223;50.940;4.034;2023-04-01T00:41:45;10.40;99.90
52267;DHT22;38223;50.940;4.034;2023-04-01T00:44:23;10.40;99.90
52267;DHT22;38223;50.940;4.034;2023-04-01T00:46:54;10.40;99.90
52267;DHT22;38223;50.940;4.034;2023-04-01T00:49:32;10.40;99.90
52267;DHT22;38223;50.940;4.034;2023-04-01T00:52:02;10.40;99.90
52267;DHT22;38223;50.940;4.034;2023-04-01T00:54:37;10.40;99.90
52267;DHT22;38223;50.940;4.034;2023-04-01T00:57:21;10.50;99.90
52267;DHT22;38223;50.940;4.034;2023-04-01T00:59:53;10.50;99.90
52267;DHT22;38223;50.940;4.034;2023-04-01T01:02:44;10.50;99.90
52267;DHT22;38223;50.940;4.034;2023-04-01T01:05:16;10.50;99.90
52267;DHT22;38223;50.940;4.034;2023-04-01T01:10:38;10.40;99.90
52267;DHT22;38223;50.940;4.034;2023-04-01T01:16:02;10.30;99.90
52267;DHT22;38223;50.940;4.034;2023-04-01T01:18:44;10.20;99.90
52267;DHT22;38223;50.940;4.034;2023-04-01T01:27:11;10.10;99.90
52267;DHT22;38223;50.940;4.034;2023-04-01T01:38:18;10.00;99.90
52267;DHT22;38223;50.940;4.034;2023-04-01T01:40:48;10.00;99.90
52267;DHT22;38223;50.940;4.034;2023-04-01T01:43:29;10.00;99.90
52267;DHT22;38223;50.940;4.034;2023-04-01T01:45:58;10.00;99.90
52267;DHT22;38223;50.940;4.034;2023-04-01T01:48:30;9.90;99.90
52267;DHT22;38223;50.940;4.034;2023-04-01T01:51:07;9.90;99.90
52267;DHT22;38223;50.940;4.034;2023-04-01T01:53:39;10.00;99.90
52267;DHT22;38223;50.940;4.034;2023-04-01T01:56:11;10.00;99.90
52267;DHT22;38223;50.940;4.034;2023-04-01T01:58:50;10.00;99.90
52267;DHT22;38223;50.940;4.034;2023-04-01T02:01:23;10.00;99.90
52267;DHT22;38223;50.940;4.034;2023-04-01T02:03:54;9.90;99.90
52267;DHT22;38223;50.940;4.034;2023-04-01T02:06:28;9.90;99.90
52267;DHT22;38223;50.940;4.034;2023-04-01T02:09:04;9.90;99.90
52267;DHT22;38223;50.940;4.034;2023-04-01T02:11:43;9.90;99.90
52267;DHT22;38223;50.940;4.034;2023-04-01T02:14:23;10.00;99.90
52267;DHT22;38223;50.940;4.034;2023-04-01T02:19:40;9.90;99.90
52267;DHT22;38223;50.940;4.034;2023-04-01T02:22:13;9.90;99.90
52267;DHT22;38223;50.940;4.034;2023-04-01T02:24:47;9.90;99.90
52267;DHT22;38223;50.940;4.034;2023-04-01T02:27:15;9.90;99.90
52267;DHT22;38223;50.940;4.034;2023-04-01T02:29:46;9.90;99.90
52267;DHT22;38223;50.940;4.034;2023-04-01T02:32:21;9.90;99.90
52267;DHT22;38223;50.940;4.034;2023-04-01T02:34:54;9.90;99.90
52267;DHT22;38223;50.940;4.034;2023-04-01T02:37:34;9.90;99.90
52267;DHT22;38223;50.940;4.034;2023-04-01T02:43:00;9.90;99.90
52267;DHT22;38223;50.940;4.034;2023-04-01T02:45:34;9.90;99.90
52267;DHT22;38223;50.940;4.034;2023-04-01T02:48:10;9.90;99.90
52267;DHT22;38223;50.940;4.034;2023-04-01T02:50:53;10.00;99.90
52267;DHT22;38223;50.940;4.034;2023-04-01T02:53:30;10.00;99.90
52267;DHT22;38223;50.940;4.034;2023-04-01T02:56:03;9.90;99.90
52267;DHT22;38223;50.940;4.034;2023-04-01T02:58:37;10.00;99.90
52267;DHT22;38223;50.940;4.034;2023-04-01T03:01:12;10.00;99.90
52267;DHT22;38223;50.940;4.034;2023-04-01T03:03:50;10.00;99.90
52267;DHT22;38223;50.940;4.034;2023-04-01T03:06:35;10.00;99.90
52267;DHT22;38223;50.940;4.034;2023-04-01T03:09:06;10.00;99.90
52267;DHT22;38223;50.940;4.034;2023-04-01T03:11:41;10.10;99.90
52267;DHT22;38223;50.940;4.034;2023-04-01T03:14:20;10.10;99.90
52267;DHT22;38223;50.940;4.034;2023-04-01T03:16:56;10.20;99.90
52267;DHT22;38223;50.940;4.034;2023-04-01T03:19:30;10.20;99.90
52267;DHT22;38223;50.940;4.034;2023-04-01T03:22:11;10.30;99.90
52267;DHT22;38223;50.940;4.034;2023-04-01T03:24:45;10.30;99.90
52267;DHT22;38223;50.940;4.034;2023-04-01T03:27:24;10.20;99.90
52267;DHT22;38223;50.940;4.034;2023-04-01T03:29:57;10.10;99.90
52267;DHT22;38223;50.940;4.034;2023-04-01T03:32:30;10.10;99.90
52267;DHT22;38223;50.940;4.034;2023-04-01T03:35:06;10.10;99.90
52267;DHT22;38223;50.940;4.034;2023-04-01T03:37:41;10.10;99.90
52267;DHT22;38223;50.940;4.034;2023-04-01T03:40:14;10.10;99.90
52267;DHT22;38223;50.940;4.034;2023-04-01T03:42:53;10.10;99.90
52267;DHT22;38223;50.940;4.034;2023-04-01T03:45:23;10.10;99.90
52267;DHT22;38223;50.940;4.034;2023-04-01T03:47:55;10.10;99.90
52267;DHT22;38223;50.940;4.034;2023-04-01T03:50:23;10.00;99.90
52267;DHT22;38223;50.940;4.034;2023-04-01T03:52:50;10.10;99.90
52267;DHT22;38223;50.940;4.034;2023-04-01T03:55:25;10.10;99.90
52267;DHT22;38223;50.940;4.034;2023-04-01T03:57:57;10.00;99.90
52267;DHT22;38223;50.940;4.034;2023-04-01T04:00:29;10.00;99.90
52267;DHT22;38223;50.940;4.034;2023-04-01T04:03:05;9.90;99.90
52267;DHT22;38223;50.940;4.034;2023-04-01T04:05:47;9.90;99.90
52267;DHT22;38223;50.940;4.034;2023-04-01T04:08:18;9.90;99.90
52267;DHT22;38223;50.940;4.034;2023-04-01T04:11:06;9.80;99.90
52267;DHT22;38223;50.940;4.034;2023-04-01T04:13:42;9.80;99.90
52267;DHT22;38223;50.940;4.034;2023-04-01T04:16:19;9.80;99.90
52267;DHT22;38223;50.940;4.034;2023-04-01T04:19:12;9.80;99.90
52267;DHT22;38223;50.940;4.034;2023-04-01T04:21:51;9.80;99.90
52267;DHT22;38223;50.940;4.034;2023-04-01T04:24:33;9.80;99.90
52267;DHT22;38223;50.940;4.034;2023-04-01T04:27:07;9.90;99.90
52267;DHT22;38223;50.940;4.034;2023-04-01T04:29:47;9.90;99.90
52267;DHT22;38223;50.940;4.034;2023-04-01T04:32:19;9.80;99.90
52267;DHT22;38223;50.940;4.034;2023-04-01T04:34:56;9.80;99.90
52267;DHT22;38223;50.940;4.034;2023-04-01T04:37:36;9.80;99.90
52267;DHT22;38223;50.940;4.034;2023-04-01T04:40:15;9.90;99.90
52267;DHT22;38223;50.940;4.034;2023-04-01T04:42:47;9.90;99.90
52267;DHT22;38223;50.940;4.034;2023-04-01T04:45:29;9.90;99.90
52267;DHT22;38223;50.940;4.034;2023-04-01T04:47:58;9.90;99.90
52267;DHT22;38223;50.940;4.034;2023-04-01T04:50:43;10.00;99.90
52267;DHT22;38223;50.940;4.034;2023-04-01T04:53:24;10.00;99.90
52267;DHT22;38223;50.940;4.034;2023-04-01T04:56:08;10.00;99.90
52267;DHT22;38223;50.940;4.034;2023-04-01T04:58:49;10.00;99.90
52267;DHT22;38223;50.940;4.034;2023-04-01T05:01:25;10.00;99.90
52267;DHT22;38223;50.940;4.034;2023-04-01T05:06:46;9.90;99.90
52267;DHT22;38223;50.940;4.034;2023-04-01T05:09:21;9.80;99.90
52267;DHT22;38223;50.940;4.034;2023-04-01T05:12:14;9.90;99.90
52267;DHT22;38223;50.940;4.034;2023-04-01T05:14:47;9.90;99.90
52267;DHT22;38223;50.940;4.034;2023-04-01T05:17:15;9.90;99.90
52267;DHT22;38223;50.940;4.034;2023-04-01T05:19:57;9.80;99.90
52267;DHT22;38223;50.940;4.034;2023-04-01T05:22:39;9.80;99.90
52267;DHT22;38223;50.940;4.034;2023-04-01T05:25:07;9.80;99.90
52267;DHT22;38223;50.940;4.034;2023-04-01T05:27:39;9.70;99.90
52267;DHT22;38223;50.940;4.034;2023-04-01T05:30:15;9.80;99.90
52267;DHT22;38223;50.940;4.034;2023-04-01T05:32:43;9.80;99.90
52267;DHT22;38223;50.940;4.034;2023-04-01T05:35:11;9.80;99.90
52267;DHT22;38223;50.940;4.034;2023-04-01T05:37:46;9.80;99.90
52267;DHT22;38223;50.940;4.034;2023-04-01T05:40:38;9.80;99.90
52267;DHT22;38223;50.940;4.034;2023-04-01T05:43:22;9.80;99.90
52267;DHT22;38223;50.940;4.034;2023-04-01T05:45:59;9.80;99.90
52267;DHT22;38223;50.940;4.034;2023-04-01T05:48:44;9.90;99.90
52267;DHT22;38223;50.940;4.034;2023-04-01T05:51:20;9.90;99.90
52267;DHT22;38223;50.940;4.034;2023-04-01T05:54:00;9.90;99.90
52267;DHT22;38223;50.940;4.034;2023-04-01T05:56:38;10.00;99.90
52267;DHT22;38223;50.940;4.034;2023-04-01T05:59:23;10.00;99.90
52267;DHT22;38223;50.940;4.034;2023-04-01T06:01:55;10.00;99.90
52267;DHT22;38223;50.940;4.034;2023-04-01T06:04:28;10.00;99.90
52267;DHT22;38223;50.940;4.034;2023-04-01T06:07:19;9.90;99.90
52267;DHT22;38223;50.940;4.034;2023-04-01T06:09:58;9.90;99.90
52267;DHT22;38223;50.940;4.034;2023-04-01T06:15:42;9.70;99.90
52267;DHT22;38223;50.940;4.034;2023-04-01T06:24:39;9.70;99.90
52267;DHT22;38223;50.940;4.034;2023-04-01T06:43:05;9.70;99.90
52267;DHT22;38223;50.940;4.034;2023-04-01T06:51:35;9.90;99.90
52267;DHT22;38223;50.940;4.034;2023-04-01T06:54:25;9.80;99.90
52267;DHT22;38223;50.940;4.034;2023-04-01T06:57:41;9.70;99.90
52267;DHT22;38223;50.940;4.034;2023-04-01T06:59:36;9.80;99.90
52267;DHT22;38223;50.940;4.034;2023-04-01T07:02:27;9.70;99.90
52267;DHT22;38223;50.940;4.034;2023-04-01T07:04:59;9.80;99.90
52267;DHT22;38223;50.940;4.034;2023-04-01T07:07:45;9.80;99.90
52267;DHT22;38223;50.940;4.034;2023-04-01T07:10:25;9.70;99.90
52267;DHT22;38223;50.940;4.034;2023-04-01T07:13:13;9.60;99.90
52267;DHT22;38223;50.940;4.034;2023-04-01T07:15:54;9.60;99.90
52267;DHT22;38223;50.940;4.034;2023-04-01T07:18:29;9.60;99.90
52267;DHT22;38223;50.940;4.034;2023-04-01T07:21:02;9.60;99.90
52267;DHT22;38223;50.940;4.034;2023-04-01T07:23:47;9.60;99.90
52267;DHT22;38223;50.940;4.034;2023-04-01T07:26:25;9.60;99.90
52267;DHT22;38223;50.940;4.034;2023-04-01T07:29:12;9.70;99.90
52267;DHT22;38223;50.940;4.034;2023-04-01T07:44:25;9.70;99.90
52267;DHT22;38223;50.940;4.034;2023-04-01T07:50:02;9.60;99.90
52267;DHT22;38223;50.940;4.034;2023-04-01T08:07:43;9.70;99.90
52267;DHT22;38223;50.940;4.034;2023-04-01T08:10:21;9.60;99.90
52267;DHT22;38223;50.940;4.034;2023-04-01T08:19:00;9.70;99.90
52267;DHT22;38223;50.940;4.034;2023-04-01T08:21:27;9.80;99.90
52267;DHT22;38223;50.940;4.034;2023-04-01T08:24:25;9.80;99.90
52267;DHT22;38223;50.940;4.034;2023-04-01T08:26:55;9.80;99.90
52267;DHT22;38223;50.940;4.034;2023-04-01T08:30:04;9.80;99.90
52267;DHT22;38223;50.940;4.034;2023-04-01T08:32:41;9.90;99.90
52267;DHT22;38223;50.940;4.034;2023-04-01T08:35:33;9.90;99.90
52267;DHT22;38223;50.940;4.034;2023-04-01T08:38:20;9.90;99.90
52267;DHT22;38223;50.940;4.034;2023-04-01T08:41:57;9.90;99.90
52267;DHT22;38223;50.940;4.034;2023-04-01T08:52:52;10.00;99.90
52267;DHT22;38223;50.940;4.034;2023-04-01T08:58:24;10.10;99.90
52267;DHT22;38223;50.940;4.034;2023-04-01T09:00:56;10.10;99.90
52267;DHT22;38223;50.940;4.034;2023-04-01T09:03:52;10.00;99.90
52267;DHT22;38223;50.940;4.034;2023-04-01T09:09:26;9.90;99.90
52267;DHT22;38223;50.940;4.034;2023-04-01T09:18:08;9.90;99.90
52267;DHT22;38223;50.940;4.034;2023-04-01T09:41:29;10.30;99.90
52267;DHT22;38223;50.940;4.034;2023-04-01T09:44:15;10.20;99.90
52267;DHT22;38223;50.940;4.034;2023-04-01T09:52:57;10.10;99.90
52267;DHT22;38223;50.940;4.034;2023-04-01T10:04:56;10.40;99.90
52267;DHT22;38223;50.940;4.034;2023-04-01T10:19:24;10.10;99.90
52267;DHT22;38223;50.940;4.034;2023-04-01T10:22:00;10.20;99.90
52267;DHT22;38223;50.940;4.034;2023-04-01T10:43:00;10.30;99.90
52267;DHT22;38223;50.940;4.034;2023-04-01T10:57:44;10.60;99.90
52267;DHT22;38223;50.940;4.034;2023-04-01T11:03:59;10.50;99.90
52267;DHT22;38223;50.940;4.034;2023-04-01T11:15:06;10.70;99.90
52267;DHT22;38223;50.940;4.034;2023-04-01T11:23:53;10.80;99.90
52267;DHT22;38223;50.940;4.034;2023-04-01T11:26:23;10.80;99.90
52267;DHT22;38223;50.940;4.034;2023-04-01T11:31:56;10.40;99.90
52267;DHT22;38223;50.940;4.034;2023-04-01T11:37:29;10.40;99.90
52267;DHT22;38223;50.940;4.034;2023-04-01T11:40:29;10.40;99.90
52267;DHT22;38223;50.940;4.034;2023-04-01T11:43:58;10.30;99.90
52267;DHT22;38223;50.940;4.034;2023-04-01T11:45:49;10.40;99.90
52267;DHT22;38223;50.940;4.034;2023-04-01T12:02:53;10.50;99.90
52267;DHT22;38223;50.940;4.034;2023-04-01T12:11:11;10.40;99.90
52267;DHT22;38223;50.940;4.034;2023-04-01T12:14:00;10.30;99.90
52267;DHT22;38223;50.940;4.034;2023-04-01T12:16:59;10.30;99.90
52267;DHT22;38223;50.940;4.034;2023-04-01T12:19:38;10.40;99.90
52267;DHT22;38223;50.940;4.034;2023-04-01T12:22:30;10.40;99.90
52267;DHT22;38223;50.940;4.034;2023-04-01T12:25:19;10.40;99.90
52267;DHT22;38223;50.940;4.034;2023-04-01T12:36:22;10.20;99.90
52267;DHT22;38223;50.940;4.034;2023-04-01T12:41:44;10.40;99.90
52267;DHT22;38223;50.940;4.034;2023-04-01T12:44:33;10.50;99.90
52267;DHT22;38223;50.940;4.034;2023-04-01T12:55:54;10.20;99.90
52267;DHT22;38223;50.940;4.034;2023-04-01T13:15:29;10.00;99.90
52267;DHT22;38223;50.940;4.034;2023-04-01T13:26:22;10.00;99.90
52267;DHT22;38223;50.940;4.034;2023-04-01T13:29:10;10.00;99.90
52267;DHT22;38223;50.940;4.034;2023-04-01T13:32:20;10.10;99.90
52267;DHT22;38223;50.940;4.034;2023-04-01T13:38:05;10.30;99.90
52267;DHT22;38223;50.940;4.034;2023-04-01T13:43:23;10.20;99.90
52267;DHT22;38223;50.940;4.034;2023-04-01T13:46:10;10.20;99.90
52267;DHT22;38223;50.940;4.034;2023-04-01T13:54:49;10.10;99.90
52267;DHT22;38223;50.940;4.034;2023-04-01T13:57:43;10.00;99.90
52267;DHT22;38223;50.940;4.034;2023-04-01T14:00:33;10.10;99.90
52267;DHT22;38223;50.940;4.034;2023-04-01T14:16:47;10.10;99.90
52267;DHT22;38223;50.940;4.034;2023-04-01T14:31:34;9.90;99.90
52267;DHT22;38223;50.940;4.034;2023-04-01T14:33:30;9.90;99.90
52267;DHT22;38223;50.940;4.034;2023-04-01T14:42:23;10.00;99.90
52267;DHT22;38223;50.940;4.034;2023-04-01T14:47:42;9.80;99.90
52267;DHT22;38223;50.940;4.034;2023-04-01T14:50:22;10.00;99.90
52267;DHT22;38223;50.940;4.034;2023-04-01T14:53:09;10.20;99.90
52267;DHT22;38223;50.940;4.034;2023-04-01T14:55:51;10.20;99.90
52267;DHT22;38223;50.940;4.034;2023-04-01T14:58:23;10.30;99.90
52267;DHT22;38223;50.940;4.034;2023-04-01T15:06:35;10.50;99.90
52267;DHT22;38223;50.940;4.034;2023-04-01T15:17:51;10.40;99.90
52267;DHT22;38223;50.940;4.034;2023-04-01T15:20:33;10.50;99.90
52267;DHT22;38223;50.940;4.034;2023-04-01T15:31:37;10.50;99.90
52267;DHT22;38223;50.940;4.034;2023-04-01T15:36:53;10.40;99.90
52267;DHT22;38223;50.940;4.034;2023-04-01T15:42:22;10.30;99.90
52267;DHT22;38223;50.940;4.034;2023-04-01T15:45:03;10.20;99.90
52267;DHT22;38223;50.940;4.034;2023-04-01T15:47:44;10.10;99.90
52267;DHT22;38223;50.940;4.034;2023-04-01T15:50:35;10.00;99.90
52267;DHT22;38223;50.940;4.034;2023-04-01T15:56:10;10.00;99.90
52267;DHT22;38223;50.940;4.034;2023-04-01T15:58:50;9.90;99.90
52267;DHT22;38223;50.940;4.034;2023-04-01T16:01:38;9.80;99.90
52267;DHT22;38223;50.940;4.034;2023-04-01T16:07:10;9.90;99.90
52267;DHT22;38223;50.940;4.034;2023-04-01T16:09:59;10.10;99.90
52267;DHT22;38223;50.940;4.034;2023-04-01T16:12:53;10.10;99.90
52267;DHT22;38223;50.940;4.034;2023-04-01T16:15:33;10.10;99.90
52267;DHT22;38223;50.940;4.034;2023-04-01T16:21:14;10.00;99.90
52267;DHT22;38223;50.940;4.034;2023-04-01T16:23:51;9.90;99.90
52267;DHT22;38223;50.940;4.034;2023-04-01T16:26:36;10.00;99.90
52267;DHT22;38223;50.940;4.034;2023-04-01T16:34:47;10.00;99.90
52267;DHT22;38223;50.940;4.034;2023-04-01T16:37:21;9.90;99.90
52267;DHT22;38223;50.940;4.034;2023-04-01T16:42:47;10.00;99.90
52267;DHT22;38223;50.940;4.034;2023-04-01T16:48:01;10.20;99.90
52267;DHT22;38223;50.940;4.034;2023-04-01T16:50:39;10.20;99.90
52267;DHT22;38223;50.940;4.034;2023-04-01T16:56:07;10.20;99.90
52267;DHT22;38223;50.940;4.034;2023-04-01T16:58:48;10.30;99.90
52267;DHT22;38223;50.940;4.034;2023-04-01T17:01:43;10.20;99.90
52267;DHT22;38223;50.940;4.034;2023-04-01T17:06:58;10.00;99.90
52267;DHT22;38223;50.940;4.034;2023-04-01T17:09:57;10.00;99.90
52267;DHT22;38223;50.940;4.034;2023-04-01T17:12:28;9.90;99.90
52267;DHT22;38223;50.940;4.034;2023-04-01T17:15:17;9.80;99.90
52267;DHT22;38223;50.940;4.034;2023-04-01T17:21:13;9.80;99.90
52267;DHT22;38223;50.940;4.034;2023-04-01T17:23:44;9.80;99.90
52267;DHT22;38223;50.940;4.034;2023-04-01T17:26:42;9.80;99.90
52267;DHT22;38223;50.940;4.034;2023-04-01T17:29:37;9.70;99.90
52267;DHT22;38223;50.940;4.034;2023-04-01T17:32:16;9.60;99.90
52267;DHT22;38223;50.940;4.034;2023-04-01T17:38:05;9.90;99.90
52267;DHT22;38223;50.940;4.034;2023-04-01T17:43:59;9.70;99.90
52267;DHT22;38223;50.940;4.034;2023-04-01T17:52:18;9.90;99.90
52267;DHT22;38223;50.940;4.034;2023-04-01T17:58:17;9.60;99.90
52267;DHT22;38223;50.940;4.034;2023-04-01T18:03:54;9.40;99.90
52267;DHT22;38223;50.940;4.034;2023-04-01T18:12:12;9.40;99.90
52267;DHT22;38223;50.940;4.034;2023-04-01T18:15:04;9.30;99.90
52267;DHT22;38223;50.940;4.034;2023-04-01T18:20:53;9.40;99.90
52267;DHT22;38223;50.940;4.034;2023-04-01T18:23:45;9.50;99.90
52267;DHT22;38223;50.940;4.034;2023-04-01T18:26:29;9.40;99.90
52267;DHT22;38223;50.940;4.034;2023-04-01T18:32:00;9.50;99.90
52267;DHT22;38223;50.940;4.034;2023-04-01T18:34:52;9.50;99.90
52267;DHT22;38223;50.940;4.034;2023-04-01T18:37:36;9.30;99.90
52267;DHT22;38223;50.940;4.034;2023-04-01T18:40:40;9.40;99.90
52267;DHT22;38223;50.940;4.034;2023-04-01T18:42:57;9.30;99.90
52267;DHT22;38223;50.940;4.034;2023-04-01T18:45:49;9.30;99.90
52267;DHT22;38223;50.940;4.034;2023-04-01T18:51:26;9.20;99.90
52267;DHT22;38223;50.940;4.034;2023-04-01T18:54:02;9.10;99.90
52267;DHT22;38223;50.940;4.034;2023-04-01T18:56:38;9.10;99.90
52267;DHT22;38223;50.940;4.034;2023-04-01T18:59:35;9.10;99.90
52267;DHT22;38223;50.940;4.034;2023-04-01T19:02:30;9.10;99.90
52267;DHT22;38223;50.940;4.034;2023-04-01T19:05:16;9.10;99.90
52267;DHT22;38223;50.940;4.034;2023-04-01T19:07:56;9.10;99.90
52267;DHT22;38223;50.940;4.034;2023-04-01T19:10:39;9.30;99.90
52267;DHT22;38223;50.940;4.034;2023-04-01T19:13:20;9.30;99.90
52267;DHT22;38223;50.940;4.034;2023-04-01T19:16:15;9.30;99.90
52267;DHT22;38223;50.940;4.034;2023-04-01T19:19:03;9.40;99.90
52267;DHT22;38223;50.940;4.034;2023-04-01T19:21:53;9.40;99.90
52267;DHT22;38223;50.940;4.034;2023-04-01T19:24:43;9.40;99.90
52267;DHT22;38223;50.940;4.034;2023-04-01T19:30:41;9.20;99.90
52267;DHT22;38223;50.940;4.034;2023-04-01T19:33:05;9.40;99.90
52267;DHT22;38223;50.940;4.034;2023-04-01T19:35:47;9.30;99.90
52267;DHT22;38223;50.940;4.034;2023-04-01T19:38:49;9.30;99.90
52267;DHT22;38223;50.940;4.034;2023-04-01T19:41:40;9.20;99.90
52267;DHT22;38223;50.940;4.034;2023-04-01T19:44:37;9.30;99.90
52267;DHT22;38223;50.940;4.034;2023-04-01T19:50:06;9.30;99.90
52267;DHT22;38223;50.940;4.034;2023-04-01T19:52:45;9.40;99.90
52267;DHT22;38223;50.940;4.034;2023-04-01T19:55:43;9.50;99.90
52267;DHT22;38223;50.940;4.034;2023-04-01T19:58:26;9.50;99.90
52267;DHT22;38223;50.940;4.034;2023-04-01T20:01:01;9.40;99.90
52267;DHT22;38223;50.940;4.034;2023-04-01T20:03:54;9.30;99.90
52267;DHT22;38223;50.940;4.034;2023-04-01T20:09:53;9.40;99.90
52267;DHT22;38223;50.940;4.034;2023-04-01T20:12:52;9.50;99.90
52267;DHT22;38223;50.940;4.034;2023-04-01T20:15:36;9.50;99.90
52267;DHT22;38223;50.940;4.034;2023-04-01T20:18:24;9.40;99.90
52267;DHT22;38223;50.940;4.034;2023-04-01T20:21:01;9.40;99.90
52267;DHT22;38223;50.940;4.034;2023-04-01T20:26:38;9.40;99.90
52267;DHT22;38223;50.940;4.034;2023-04-01T20:37:47;9.10;99.90
52267;DHT22;38223;50.940;4.034;2023-04-01T20:40:40;9.10;99.90
52267;DHT22;38223;50.940;4.034;2023-04-01T20:43:24;9.10;99.90
52267;DHT22;38223;50.940;4.034;2023-04-01T20:49:00;9.30;99.90
52267;DHT22;38223;50.940;4.034;2023-04-01T20:51:37;9.40;99.90
52267;DHT22;38223;50.940;4.034;2023-04-01T21:00:19;9.40;99.90
52267;DHT22;38223;50.940;4.034;2023-04-01T21:08:28;9.50;99.90
52267;DHT22;38223;50.940;4.034;2023-04-01T21:19:22;9.40;99.90
52267;DHT22;38223;50.940;4.034;2023-04-01T21:22:13;9.40;99.90
52267;DHT22;38223;50.940;4.034;2023-04-01T21:30:58;9.40;99.90
52267;DHT22;38223;50.940;4.034;2023-04-01T21:39:23;9.40;99.90
52267;DHT22;38223;50.940;4.034;2023-04-01T21:45:02;9.50;99.90
52267;DHT22;38223;50.940;4.034;2023-04-01T21:47:55;9.40;99.90
52267;DHT22;38223;50.940;4.034;2023-04-01T21:56:49;9.70;99.90
52267;DHT22;38223;50.940;4.034;2023-04-01T22:07:59;9.60;99.90
52267;DHT22;38223;50.940;4.034;2023-04-01T22:10:46;9.60;99.90
52267;DHT22;38223;50.940;4.034;2023-04-01T22:16:29;9.60;99.90
52267;DHT22;38223;50.940;4.034;2023-04-01T22:19:15;9.60;99.90
52267;DHT22;38223;50.940;4.034;2023-04-01T22:22:18;9.50;99.90
52267;DHT22;38223;50.940;4.034;2023-04-01T22:28:08;9.30;99.90
52267;DHT22;38223;50.940;4.034;2023-04-01T22:31:03;9.30;99.90
52267;DHT22;38223;50.940;4.034;2023-04-01T22:45:18;9.70;99.90
52267;DHT22;38223;50.940;4.034;2023-04-01T22:47:57;9.70;99.90
52267;DHT22;38223;50.940;4.034;2023-04-01T22:50:56;9.50;99.90
52267;DHT22;38223;50.940;4.034;2023-04-01T22:56:44;9.60;99.90
52267;DHT22;38223;50.940;4.034;2023-04-01T23:02:39;9.70;99.90
52267;DHT22;38223;50.940;4.034;2023-04-01T23:05:15;9.70;99.90
52267;DHT22;38223;50.940;4.034;2023-04-01T23:10:25;9.70;99.90
52267;DHT22;38223;50.940;4.034;2023-04-01T23:12:52;9.70;99.90
52267;DHT22;38223;50.940;4.034;2023-04-01T23:15:21;9.70;99.90
52267;DHT22;38223;50.940;4.034;2023-04-01T23:18:05;9.90;99.90
52267;DHT22;38223;50.940;4.034;2023-04-01T23:23:30;10.00;99.90
52267;DHT22;38223;50.940;4.034;2023-04-01T23:26:32;10.00;99.90
52267;DHT22;38223;50.940;4.034;2023-04-01T23:29:07;9.80;99.90
52267;DHT22;38223;50.940;4.034;2023-04-01T23:31:41;9.80;99.90
52267;DHT22;38223;50.940;4.034;2023-04-01T23:34:38;9.60;99.90
52267;DHT22;38223;50.940;4.034;2023-04-01T23:37:14;9.60;99.90
52267;DHT22;38223;50.940;4.034;2023-04-01T23:39:50;9.50;99.90
52267;DHT22;38223;50.940;4.034;2023-04-01T23:42:30;9.50;99.90
52267;DHT22;38223;50.940;4.034;2023-04-01T23:45:11;9.40;99.90
52267;DHT22;38223;50.940;4.034;2023-04-01T23:47:40;9.40;99.90
52267;DHT22;38223;50.940;4.034;2023-04-01T23:50:29;9.30;99.90
52267;DHT22;38223;50.940;4.034;2023-04-01T23:53:24;9.30;99.90
52267;DHT22;38223;50.940;4.034;2023-04-01T23:55:42;9.30;99.90
52267;DHT22;38223;50.940;4.034;2023-04-01T23:58:22;9.10;99.90
